createdAt,value
2017-10-24T00:00:42.887Z,11.33
2017-10-24T00:01:51.736Z,11.39
2017-10-24T00:03:01.140Z,11.36
2017-10-24T00:04:10.331Z,11.42
2017-10-24T00:05:19.180Z,11.4
2017-10-24T00:06:28.028Z,11.42
2017-10-24T00:07:36.875Z,11.42
2017-10-24T00:08:45.770Z,11.36
2017-10-24T00:09:54.618Z,11.37
2017-10-24T00:11:03.466Z,11.43
2017-10-24T00:12:12.317Z,11.32
2017-10-24T00:13:21.168Z,11.37
2017-10-24T00:14:30.314Z,11.36
2017-10-24T00:15:39.162Z,11.42
2017-10-24T00:16:48.008Z,11.39
2017-10-24T00:17:56.857Z,11.35
2017-10-24T00:19:05.707Z,11.42
2017-10-24T00:20:14.705Z,11.42
2017-10-24T00:21:23.553Z,11.43
2017-10-24T00:22:32.402Z,11.37
2017-10-24T00:23:41.249Z,11.37
2017-10-24T00:24:50.103Z,11.39
2017-10-24T00:25:59.148Z,11.42
2017-10-24T00:27:07.997Z,11.42
2017-10-24T00:28:16.844Z,11.37
2017-10-24T00:29:25.690Z,11.29
2017-10-24T00:30:34.537Z,11.29
2017-10-24T00:31:43.483Z,11.33
2017-10-24T00:32:52.329Z,11.35
2017-10-24T00:34:01.178Z,11.36
2017-10-24T00:35:10.028Z,11.33
2017-10-24T00:36:18.877Z,11.32
2017-10-24T00:37:27.825Z,11.33
2017-10-24T00:38:36.673Z,11.32
2017-10-24T00:39:45.520Z,11.35
2017-10-24T00:40:54.366Z,11.35
2017-10-24T00:42:03.213Z,11.42
2017-10-24T00:43:12.060Z,11.43
2017-10-24T00:44:20.910Z,11.35
2017-10-24T00:45:29.762Z,11.37
2017-10-24T00:46:38.612Z,11.37
2017-10-24T00:47:47.460Z,11.39
2017-10-24T00:48:56.453Z,11.37
2017-10-24T00:50:05.651Z,11.42
2017-10-24T00:51:14.503Z,11.43
2017-10-24T00:52:23.353Z,11.4
2017-10-24T00:53:32.200Z,11.44
2017-10-24T00:54:41.196Z,11.42
2017-10-24T00:55:50.046Z,11.46
2017-10-24T00:56:58.892Z,11.47
2017-10-24T00:58:07.744Z,11.49
2017-10-24T00:59:16.593Z,11.46
2017-10-24T01:00:25.595Z,11.44
2017-10-24T01:01:34.448Z,11.49
2017-10-24T01:02:43.295Z,11.47
2017-10-24T01:03:52.144Z,11.47
2017-10-24T01:05:00.994Z,11.47
2017-10-24T01:06:09.946Z,11.51
2017-10-24T01:07:18.796Z,11.47
2017-10-24T01:08:27.645Z,11.52
2017-10-24T01:09:36.490Z,11.43
2017-10-24T01:10:45.343Z,11.47
2017-10-24T01:11:54.734Z,11.47
2017-10-24T01:13:03.584Z,11.37
2017-10-24T01:14:12.433Z,11.44
2017-10-24T01:15:21.295Z,11.43
2017-10-24T01:16:30.131Z,11.46
2017-10-24T01:17:39.130Z,11.43
2017-10-24T01:18:47.978Z,11.47
2017-10-24T01:19:56.833Z,11.37
2017-10-24T01:21:05.689Z,11.46
2017-10-24T01:22:14.535Z,11.46
2017-10-24T01:23:23.500Z,11.43
2017-10-24T01:24:32.329Z,11.4
2017-10-24T01:25:41.182Z,11.37
2017-10-24T01:26:50.032Z,11.36
2017-10-24T01:27:58.885Z,11.36
2017-10-24T01:29:07.826Z,11.42
2017-10-24T01:30:16.672Z,11.42
2017-10-24T01:31:25.521Z,11.39
2017-10-24T01:32:34.369Z,11.39
2017-10-24T01:33:43.220Z,11.42
2017-10-24T01:34:52.268Z,11.36
2017-10-24T01:36:01.119Z,11.35
2017-10-24T01:37:09.968Z,11.39
2017-10-24T01:38:18.818Z,11.29
2017-10-24T01:39:27.668Z,11.33
2017-10-24T01:40:36.669Z,11.24
2017-10-24T01:41:45.515Z,11.28
2017-10-24T01:42:54.357Z,11.36
2017-10-24T01:44:03.208Z,11.29
2017-10-24T01:45:12.058Z,11.19
2017-10-24T01:46:21.502Z,11.21
2017-10-24T01:47:30.344Z,11.22
2017-10-24T01:48:39.198Z,11.29
2017-10-24T01:49:48.389Z,11.24
2017-10-24T01:50:57.238Z,11.27
2017-10-24T01:52:06.186Z,11.32
2017-10-24T01:53:15.032Z,11.21
2017-10-24T01:54:23.882Z,11.25
2017-10-24T01:55:32.731Z,11.28
2017-10-24T01:56:41.579Z,11.19
2017-10-24T01:57:50.526Z,11.22
2017-10-24T01:58:59.373Z,11.22
2017-10-24T02:00:08.572Z,11.15
2017-10-24T02:01:17.421Z,11.09
2017-10-24T02:02:26.274Z,11.15
2017-10-24T02:03:35.365Z,11.11
2017-10-24T02:04:44.214Z,11.17
2017-10-24T02:05:53.065Z,11.15
2017-10-24T02:07:01.916Z,11.19
2017-10-24T02:08:10.768Z,11.06
2017-10-24T02:09:19.767Z,11.11
2017-10-24T02:10:28.613Z,11.07
2017-10-24T02:11:37.460Z,11.09
2017-10-24T02:12:46.305Z,11.06
2017-10-24T02:13:55.154Z,11.06
2017-10-24T02:15:04.203Z,11.03
2017-10-24T02:16:13.051Z,10.99
2017-10-24T02:17:21.899Z,10.97
2017-10-24T02:18:30.747Z,11
2017-10-24T02:19:39.595Z,10.97
2017-10-24T02:20:48.445Z,11.06
2017-10-24T02:21:57.293Z,10.97
2017-10-24T02:23:06.142Z,10.97
2017-10-24T02:24:14.999Z,11.04
2017-10-24T02:25:23.854Z,11
2017-10-24T02:26:32.836Z,10.99
2017-10-24T02:27:41.681Z,11.02
2017-10-24T02:28:50.531Z,10.94
2017-10-24T02:29:59.379Z,10.99
2017-10-24T02:31:08.240Z,11.03
2017-10-24T02:32:17.374Z,10.92
2017-10-24T02:33:26.221Z,10.94
2017-10-24T02:34:35.079Z,10.97
2017-10-24T02:35:43.920Z,10.89
2017-10-24T02:36:52.766Z,10.88
2017-10-24T02:38:01.763Z,10.88
2017-10-24T02:39:10.615Z,10.92
2017-10-24T02:40:19.472Z,10.85
2017-10-24T02:41:28.314Z,10.88
2017-10-24T02:42:37.161Z,10.88
2017-10-24T02:43:46.215Z,10.82
2017-10-24T02:44:55.084Z,10.91
2017-10-24T02:46:04.278Z,10.89
2017-10-24T02:47:13.124Z,10.89
2017-10-24T02:48:21.975Z,10.89
2017-10-24T02:49:30.975Z,10.85
2017-10-24T02:50:39.824Z,10.84
2017-10-24T02:51:48.672Z,10.88
2017-10-24T02:52:57.519Z,10.85
2017-10-24T02:54:06.371Z,10.76
2017-10-24T02:55:15.268Z,10.79
2017-10-24T02:56:24.120Z,10.71
2017-10-24T02:57:32.971Z,10.7
2017-10-24T02:58:41.818Z,10.76
2017-10-24T02:59:50.667Z,10.63
2017-10-24T03:00:59.622Z,10.64
2017-10-24T03:02:08.465Z,10.63
2017-10-24T03:03:17.316Z,10.64
2017-10-24T03:04:26.163Z,10.56
2017-10-24T03:05:35.012Z,10.53
2017-10-24T03:06:43.957Z,10.48
2017-10-24T03:07:52.806Z,10.56
2017-10-24T03:09:01.655Z,10.42
2017-10-24T03:10:10.504Z,10.44
2017-10-24T03:11:19.352Z,10.42
2017-10-24T03:12:28.350Z,10.44
2017-10-24T03:13:37.197Z,10.34
2017-10-24T03:14:46.044Z,10.38
2017-10-24T03:15:54.891Z,10.36
2017-10-24T03:17:03.740Z,10.3
2017-10-24T03:18:12.690Z,10.33
2017-10-24T03:19:21.540Z,10.34
2017-10-24T03:20:30.386Z,10.36
2017-10-24T03:21:39.234Z,10.27
2017-10-24T03:22:48.080Z,10.29
2017-10-24T03:23:56.927Z,10.25
2017-10-24T03:25:05.772Z,10.27
2017-10-24T03:26:14.621Z,10.33
2017-10-24T03:27:23.464Z,10.22
2017-10-24T03:28:32.311Z,10.25
2017-10-24T03:29:41.206Z,10.3
2017-10-24T03:30:50.054Z,10.33
2017-10-24T03:31:58.903Z,10.38
2017-10-24T03:33:07.751Z,10.27
2017-10-24T03:34:16.598Z,10.38
2017-10-24T03:35:25.700Z,10.4
2017-10-24T03:36:34.544Z,10.44
2017-10-24T03:37:43.738Z,10.44
2017-10-24T03:38:52.587Z,10.47
2017-10-24T03:40:01.431Z,10.47
2017-10-24T03:41:10.282Z,10.41
2017-10-24T03:42:19.132Z,10.44
2017-10-24T03:43:27.978Z,10.38
2017-10-24T03:44:36.821Z,10.4
2017-10-24T03:45:45.671Z,10.34
2017-10-24T03:46:55.015Z,10.47
2017-10-24T03:48:03.862Z,10.51
2017-10-24T03:49:13.068Z,10.45
2017-10-24T03:50:21.911Z,10.52
2017-10-24T03:51:30.756Z,10.42
2017-10-24T03:52:39.653Z,10.42
2017-10-24T03:53:48.504Z,10.48
2017-10-24T03:54:57.351Z,10.42
2017-10-24T03:56:06.201Z,10.38
2017-10-24T03:57:15.049Z,10.42
2017-10-24T03:58:24.045Z,10.48
2017-10-24T03:59:32.895Z,10.48
2017-10-24T04:00:41.744Z,10.42
2017-10-24T04:01:50.594Z,10.45
2017-10-24T04:02:59.442Z,10.51
2017-10-24T04:04:08.291Z,10.51
2017-10-24T04:05:17.139Z,10.55
2017-10-24T04:06:25.985Z,10.52
2017-10-24T04:07:34.832Z,10.51
2017-10-24T04:08:43.680Z,10.45
2017-10-24T04:09:52.631Z,10.47
2017-10-24T04:11:01.828Z,10.55
2017-10-24T04:12:10.676Z,10.51
2017-10-24T04:13:19.524Z,10.55
2017-10-24T04:14:28.372Z,10.51
2017-10-24T04:15:37.420Z,10.61
2017-10-24T04:16:46.269Z,10.55
2017-10-24T04:17:55.116Z,10.52
2017-10-24T04:19:03.964Z,10.52
2017-10-24T04:20:12.813Z,10.55
2017-10-24T04:21:21.660Z,10.51
2017-10-24T04:22:30.515Z,10.55
2017-10-24T04:23:39.362Z,10.48
2017-10-24T04:24:48.209Z,10.51
2017-10-24T04:25:57.055Z,10.66
2017-10-24T04:27:05.903Z,10.56
2017-10-24T04:28:14.750Z,10.64
2017-10-24T04:29:23.598Z,10.68
2017-10-24T04:30:32.446Z,10.59
2017-10-24T04:31:41.297Z,10.61
2017-10-24T04:32:50.349Z,10.64
2017-10-24T04:33:59.200Z,10.61
2017-10-24T04:35:08.058Z,10.67
2017-10-24T04:36:16.895Z,10.63
2017-10-24T04:37:25.741Z,10.53
2017-10-24T04:38:34.689Z,10.6
2017-10-24T04:39:43.539Z,10.6
2017-10-24T04:40:52.392Z,10.55
2017-10-24T04:42:01.242Z,10.61
2017-10-24T04:43:10.092Z,10.55
2017-10-24T04:44:19.040Z,10.55
2017-10-24T04:45:27.886Z,10.55
2017-10-24T04:46:36.734Z,10.52
2017-10-24T04:47:45.585Z,10.59
2017-10-24T04:48:54.777Z,10.56
2017-10-24T04:50:04.029Z,10.61
2017-10-24T04:51:12.877Z,10.64
2017-10-24T04:52:21.733Z,10.66
2017-10-24T04:53:30.574Z,10.61
2017-10-24T04:54:39.423Z,10.63
2017-10-24T04:55:48.768Z,10.53
2017-10-24T04:56:57.611Z,10.59
2017-10-24T04:58:06.459Z,10.53
2017-10-24T04:59:15.310Z,10.51
2017-10-24T05:00:24.166Z,10.56
2017-10-24T05:01:33.076Z,10.55
2017-10-24T05:02:41.932Z,10.59
2017-10-24T05:03:51.125Z,10.52
2017-10-24T05:04:59.976Z,10.55
2017-10-24T05:06:08.830Z,10.59
2017-10-24T05:07:18.082Z,10.56
2017-10-24T05:08:26.932Z,10.59
2017-10-24T05:09:35.782Z,10.63
2017-10-24T05:10:44.629Z,10.63
2017-10-24T05:11:53.478Z,10.51
2017-10-24T05:13:02.430Z,10.51
2017-10-24T05:14:11.280Z,10.52
2017-10-24T05:15:20.131Z,10.51
2017-10-24T05:16:29.157Z,10.52
2017-10-24T05:17:38.007Z,10.56
2017-10-24T05:18:47.509Z,10.6
2017-10-24T05:19:56.356Z,10.67
2017-10-24T05:21:05.204Z,10.66
2017-10-24T05:22:14.052Z,10.61
2017-10-24T05:23:22.905Z,10.64
2017-10-24T05:24:31.771Z,10.61
2017-10-24T05:25:40.619Z,10.68
2017-10-24T05:26:49.468Z,10.67
2017-10-24T05:27:58.319Z,10.71
2017-10-24T05:29:07.561Z,10.7
2017-10-24T05:30:16.412Z,10.6
2017-10-24T05:31:25.262Z,10.56
2017-10-24T05:32:34.109Z,10.6
2017-10-24T05:33:42.958Z,10.64
2017-10-24T05:34:51.808Z,10.64
2017-10-24T05:36:00.658Z,10.66
2017-10-24T05:37:09.508Z,10.67
2017-10-24T05:38:18.352Z,10.63
2017-10-24T05:39:27.198Z,10.81
2017-10-24T05:40:36.043Z,10.71
2017-10-24T05:41:44.892Z,10.78
2017-10-24T05:42:53.742Z,10.76
2017-10-24T05:44:02.603Z,10.7
2017-10-24T05:45:11.450Z,10.66
2017-10-24T05:46:20.298Z,10.73
2017-10-24T05:47:29.150Z,10.78
2017-10-24T05:48:37.998Z,10.73
2017-10-24T05:49:46.998Z,10.67
2017-10-24T05:50:55.846Z,10.68
2017-10-24T05:52:04.696Z,10.7
2017-10-24T05:53:13.542Z,10.71
2017-10-24T05:54:22.391Z,10.7
2017-10-24T05:55:31.255Z,10.7
2017-10-24T05:56:40.162Z,10.71
2017-10-24T05:57:49.013Z,10.67
2017-10-24T05:58:57.874Z,10.64
2017-10-24T06:00:06.729Z,10.67
2017-10-24T06:01:15.885Z,10.68
2017-10-24T06:02:24.755Z,10.64
2017-10-24T06:03:33.604Z,10.6
2017-10-24T06:04:42.503Z,10.66
2017-10-24T06:05:51.352Z,10.66
2017-10-24T06:07:00.369Z,10.73
2017-10-24T06:08:09.223Z,10.79
2017-10-24T06:09:18.073Z,10.67
2017-10-24T06:10:26.935Z,10.71
2017-10-24T06:11:35.784Z,10.71
2017-10-24T06:12:44.877Z,10.7
2017-10-24T06:13:53.730Z,10.73
2017-10-24T06:15:02.580Z,10.71
2017-10-24T06:16:11.429Z,10.64
2017-10-24T06:17:20.281Z,10.71
2017-10-24T06:18:29.273Z,10.74
2017-10-24T06:19:38.210Z,10.86
2017-10-24T06:20:47.314Z,10.68
2017-10-24T06:21:56.164Z,10.63
2017-10-24T06:23:05.415Z,10.68
2017-10-24T06:24:14.406Z,10.7
2017-10-24T06:25:23.288Z,10.74
2017-10-24T06:26:32.513Z,10.7
2017-10-24T06:27:41.566Z,10.76
2017-10-24T06:28:50.416Z,10.79
2017-10-24T06:29:59.668Z,10.81
2017-10-24T06:31:08.514Z,10.79
2017-10-24T06:32:17.369Z,10.84
2017-10-24T06:33:26.230Z,10.81
2017-10-24T06:34:35.082Z,10.79
2017-10-24T06:35:44.081Z,10.74
2017-10-24T06:36:53.281Z,10.79
2017-10-24T06:38:02.128Z,10.82
2017-10-24T06:39:10.999Z,10.81
2017-10-24T06:40:19.846Z,10.86
2017-10-24T06:41:28.953Z,10.88
2017-10-24T06:42:37.804Z,10.88
2017-10-24T06:43:46.665Z,10.94
2017-10-24T06:44:55.515Z,10.86
2017-10-24T06:46:04.364Z,10.86
2017-10-24T06:47:13.388Z,10.94
2017-10-24T06:48:22.595Z,10.92
2017-10-24T06:49:31.789Z,10.91
2017-10-24T06:50:40.718Z,10.91
2017-10-24T06:51:49.602Z,10.94
2017-10-24T06:52:58.455Z,10.97
2017-10-24T06:54:07.342Z,10.99
2017-10-24T06:55:16.193Z,11
2017-10-24T06:56:25.040Z,10.97
2017-10-24T06:57:33.935Z,11.03
2017-10-24T06:58:43.036Z,11
2017-10-24T06:59:51.943Z,10.99
2017-10-24T07:01:01.153Z,10.97
2017-10-24T07:02:10.004Z,11.04
2017-10-24T07:03:18.855Z,11.06
2017-10-24T07:04:27.910Z,11.04
2017-10-24T07:05:36.757Z,10.97
2017-10-24T07:06:45.651Z,11.07
2017-10-24T07:07:54.957Z,11.09
2017-10-24T07:09:03.801Z,11.09
2017-10-24T07:10:12.809Z,11.18
2017-10-24T07:11:21.659Z,11.14
2017-10-24T07:12:30.553Z,11.17
2017-10-24T07:13:39.749Z,11.09
2017-10-24T07:14:48.634Z,11.06
2017-10-24T07:15:57.709Z,11.11
2017-10-24T07:17:06.942Z,11.14
2017-10-24T07:18:15.839Z,11.09
2017-10-24T07:19:24.717Z,11.14
2017-10-24T07:20:33.566Z,11.18
2017-10-24T07:21:42.517Z,11.24
2017-10-24T07:22:51.365Z,11.27
2017-10-24T07:24:00.214Z,11.22
2017-10-24T07:25:09.063Z,11.21
2017-10-24T07:26:17.913Z,11.27
2017-10-24T07:27:26.859Z,11.22
2017-10-24T07:28:35.710Z,11.29
2017-10-24T07:29:44.906Z,11.27
2017-10-24T07:30:53.755Z,11.25
2017-10-24T07:32:02.604Z,11.27
2017-10-24T07:33:11.555Z,11.32
2017-10-24T07:34:20.404Z,11.33
2017-10-24T07:35:29.250Z,11.33
2017-10-24T07:36:38.099Z,11.37
2017-10-24T07:37:46.949Z,11.43
2017-10-24T07:38:55.950Z,11.36
2017-10-24T07:40:04.801Z,11.42
2017-10-24T07:41:13.649Z,11.44
2017-10-24T07:42:22.502Z,11.43
2017-10-24T07:43:31.349Z,11.43
2017-10-24T07:44:40.300Z,11.49
2017-10-24T07:45:49.154Z,11.52
2017-10-24T07:46:58.010Z,11.51
2017-10-24T07:48:07.203Z,11.54
2017-10-24T07:49:16.050Z,11.49
2017-10-24T07:50:25.446Z,11.52
2017-10-24T07:51:34.295Z,11.54
2017-10-24T07:52:43.144Z,11.49
2017-10-24T07:53:51.998Z,11.51
2017-10-24T07:55:00.849Z,11.57
2017-10-24T07:56:10.099Z,11.64
2017-10-24T07:57:18.949Z,11.64
2017-10-24T07:58:27.799Z,11.57
2017-10-24T07:59:36.649Z,11.64
2017-10-24T08:01:17.653Z,11.61
2017-10-24T08:02:26.504Z,11.64
2017-10-24T08:03:35.702Z,11.7
2017-10-24T08:04:44.550Z,11.64
2017-10-24T08:05:53.401Z,11.72
2017-10-24T08:07:02.654Z,11.73
2017-10-24T08:08:11.504Z,11.78
2017-10-24T08:09:20.352Z,11.7
2017-10-24T08:10:29.204Z,11.72
2017-10-24T08:11:38.053Z,11.75
2017-10-24T08:12:47.007Z,11.76
2017-10-24T08:13:55.860Z,11.76
2017-10-24T08:15:04.710Z,11.75
2017-10-24T08:16:13.561Z,11.76
2017-10-24T08:17:22.410Z,11.73
2017-10-24T08:18:31.519Z,11.79
2017-10-24T08:19:40.366Z,11.78
2017-10-24T08:20:49.233Z,11.79
2017-10-24T08:21:58.068Z,11.8
2017-10-24T08:23:06.917Z,11.75
2017-10-24T08:24:16.168Z,11.83
2017-10-24T08:25:25.018Z,11.9
2017-10-24T08:26:33.870Z,11.8
2017-10-24T08:27:42.720Z,11.9
2017-10-24T08:28:51.570Z,11.91
2017-10-24T08:30:00.675Z,11.98
2017-10-24T08:31:09.528Z,11.96
2017-10-24T08:32:18.378Z,11.95
2017-10-24T08:33:27.600Z,11.91
2017-10-24T08:34:36.454Z,12.02
2017-10-24T08:35:45.604Z,12.05
2017-10-24T08:36:54.452Z,12.04
2017-10-24T08:38:03.301Z,12.07
2017-10-24T08:39:12.149Z,12.1
2017-10-24T08:40:20.998Z,12.04
2017-10-24T08:41:30.051Z,12.09
2017-10-24T08:42:38.901Z,12.05
2017-10-24T08:43:47.754Z,12.16
2017-10-24T08:44:56.624Z,12.2
2017-10-24T08:46:05.455Z,12.16
2017-10-24T08:47:14.406Z,12.13
2017-10-24T08:48:23.256Z,12.16
2017-10-24T08:49:32.110Z,12.19
2017-10-24T08:50:40.958Z,12.17
2017-10-24T08:51:49.808Z,12.14
2017-10-24T08:52:58.759Z,12.28
2017-10-24T08:54:07.955Z,12.24
2017-10-24T08:55:16.803Z,12.24
2017-10-24T08:56:25.655Z,12.28
2017-10-24T08:57:34.860Z,12.27
2017-10-24T08:58:43.916Z,12.21
2017-10-24T08:59:53.110Z,12.32
2017-10-24T09:01:01.960Z,12.39
2017-10-24T09:02:10.807Z,12.41
2017-10-24T09:03:19.664Z,12.41
2017-10-24T09:04:28.605Z,12.37
2017-10-24T09:05:37.463Z,12.41
2017-10-24T09:06:46.308Z,12.42
2017-10-24T09:07:55.504Z,12.41
2017-10-24T09:09:04.701Z,12.38
2017-10-24T09:10:13.752Z,12.37
2017-10-24T09:11:22.597Z,12.38
2017-10-24T09:12:31.445Z,12.49
2017-10-24T09:13:40.293Z,12.49
2017-10-24T09:14:49.144Z,12.47
2017-10-24T09:15:58.393Z,12.57
2017-10-24T09:17:07.241Z,12.49
2017-10-24T09:18:16.092Z,12.56
2017-10-24T09:19:25.280Z,12.53
2017-10-24T09:20:34.133Z,12.52
2017-10-24T09:21:43.283Z,12.53
2017-10-24T09:22:52.136Z,12.5
2017-10-24T09:24:00.985Z,12.6
2017-10-24T09:25:09.835Z,12.74
2017-10-24T09:26:18.693Z,12.65
2017-10-24T09:27:27.938Z,12.68
2017-10-24T09:28:36.786Z,12.64
2017-10-24T09:29:45.637Z,12.65
2017-10-24T09:30:54.489Z,12.68
2017-10-24T09:32:03.341Z,12.71
2017-10-24T09:33:12.389Z,12.7
2017-10-24T09:34:21.242Z,12.67
2017-10-24T09:35:30.094Z,12.72
2017-10-24T09:36:38.944Z,12.77
2017-10-24T09:37:47.793Z,12.7
2017-10-24T09:38:56.793Z,12.75
2017-10-24T09:40:05.643Z,12.79
2017-10-24T09:41:14.542Z,12.71
2017-10-24T09:42:23.391Z,12.75
2017-10-24T09:43:32.241Z,12.77
2017-10-24T09:44:41.141Z,12.78
2017-10-24T09:45:49.991Z,12.72
2017-10-24T09:46:58.839Z,12.77
2017-10-24T09:48:07.687Z,12.77
2017-10-24T09:49:16.542Z,12.79
2017-10-24T09:50:25.937Z,12.78
2017-10-24T09:51:35.132Z,12.86
2017-10-24T09:52:43.984Z,12.79
2017-10-24T09:53:53.179Z,12.85
2017-10-24T09:55:02.030Z,12.85
2017-10-24T09:56:11.182Z,12.85
2017-10-24T09:57:20.028Z,12.86
2017-10-24T09:58:29.239Z,12.85
2017-10-24T09:59:38.088Z,12.85
2017-10-24T10:00:46.938Z,12.9
2017-10-24T10:01:55.939Z,12.89
2017-10-24T10:03:04.792Z,12.9
2017-10-24T10:04:13.991Z,12.93
2017-10-24T10:05:23.193Z,12.93
2017-10-24T10:06:32.038Z,12.92
2017-10-24T10:07:40.889Z,13.03
2017-10-24T10:08:49.741Z,12.92
2017-10-24T10:09:58.597Z,12.96
2017-10-24T10:11:07.445Z,12.97
2017-10-24T10:12:16.296Z,12.97
2017-10-24T10:13:25.351Z,13.03
2017-10-24T10:14:34.199Z,13.01
2017-10-24T10:15:43.049Z,13.03
2017-10-24T10:16:51.900Z,13.03
2017-10-24T10:18:00.751Z,13.07
2017-10-24T10:19:09.753Z,13.03
2017-10-24T10:20:18.607Z,13.03
2017-10-24T10:21:27.458Z,13.12
2017-10-24T10:22:36.306Z,13.05
2017-10-24T10:23:45.157Z,13.14
2017-10-24T10:24:54.058Z,13.17
2017-10-24T10:26:02.911Z,13.15
2017-10-24T10:27:11.768Z,13.19
2017-10-24T10:28:20.622Z,13.26
2017-10-24T10:29:29.473Z,13.28
2017-10-24T10:30:38.527Z,13.29
2017-10-24T10:31:47.376Z,13.22
2017-10-24T10:32:56.228Z,13.36
2017-10-24T10:34:05.078Z,13.3
2017-10-24T10:35:14.277Z,13.33
2017-10-24T10:36:23.273Z,13.36
2017-10-24T10:37:32.124Z,13.39
2017-10-24T10:38:40.973Z,13.39
2017-10-24T10:39:49.824Z,13.36
2017-10-24T10:40:58.773Z,13.46
2017-10-24T10:42:07.775Z,13.48
2017-10-24T10:43:16.631Z,13.48
2017-10-24T10:44:25.481Z,13.49
2017-10-24T10:45:34.328Z,13.51
2017-10-24T10:46:43.179Z,13.45
2017-10-24T10:47:52.131Z,13.41
2017-10-24T10:49:00.983Z,13.64
2017-10-24T10:50:09.831Z,13.54
2017-10-24T10:51:18.683Z,13.59
2017-10-24T10:52:27.535Z,13.57
2017-10-24T10:53:36.489Z,13.62
2017-10-24T10:54:45.341Z,13.6
2017-10-24T10:55:54.191Z,13.63
2017-10-24T10:57:03.070Z,13.67
2017-10-24T10:58:11.924Z,13.66
2017-10-24T10:59:20.880Z,13.69
2017-10-24T11:00:29.750Z,13.67
2017-10-24T11:01:38.602Z,13.69
2017-10-24T11:02:47.453Z,13.78
2017-10-24T11:03:56.305Z,13.71
2017-10-24T11:05:05.258Z,13.71
2017-10-24T11:06:14.159Z,13.7
2017-10-24T11:07:23.013Z,13.78
2017-10-24T11:08:32.210Z,13.73
2017-10-24T11:09:41.058Z,13.75
2017-10-24T11:10:50.013Z,13.78
2017-10-24T11:11:58.863Z,13.73
2017-10-24T11:13:07.718Z,13.71
2017-10-24T11:14:16.569Z,13.81
2017-10-24T11:15:25.424Z,13.81
2017-10-24T11:16:34.374Z,13.77
2017-10-24T11:17:43.229Z,13.71
2017-10-24T11:18:52.080Z,13.75
2017-10-24T11:20:01.174Z,13.78
2017-10-24T11:21:10.102Z,13.73
2017-10-24T11:22:19.249Z,13.78
2017-10-24T11:23:28.107Z,13.75
2017-10-24T11:24:36.962Z,13.71
2017-10-24T11:25:45.822Z,13.77
2017-10-24T11:26:54.682Z,13.79
2017-10-24T11:28:04.479Z,13.82
2017-10-24T11:29:13.327Z,13.88
2017-10-24T11:30:22.181Z,13.88
2017-10-24T11:31:31.031Z,13.91
2017-10-24T11:32:39.882Z,13.95
2017-10-24T11:33:48.783Z,13.89
2017-10-24T11:34:57.635Z,13.96
2017-10-24T11:36:06.485Z,14.02
2017-10-24T11:37:15.337Z,13.91
2017-10-24T11:38:24.189Z,13.97
2017-10-24T11:39:33.141Z,13.84
2017-10-24T11:40:41.990Z,13.96
2017-10-24T11:41:50.845Z,13.99
2017-10-24T11:42:59.701Z,14.02
2017-10-24T11:44:08.554Z,13.92
2017-10-24T11:45:17.556Z,14.02
2017-10-24T11:46:26.412Z,13.96
2017-10-24T11:47:35.262Z,14
2017-10-24T11:48:44.162Z,14
2017-10-24T11:49:53.442Z,13.95
2017-10-24T11:51:02.587Z,13.99
2017-10-24T11:52:11.441Z,13.99
2017-10-24T11:53:20.295Z,14.02
2017-10-24T11:54:29.150Z,13.96
2017-10-24T11:55:38.001Z,14
2017-10-24T11:56:46.954Z,13.99
2017-10-24T11:57:55.802Z,13.97
2017-10-24T11:59:04.654Z,13.97
2017-10-24T12:00:13.509Z,13.92
2017-10-24T12:01:22.361Z,13.92
2017-10-24T12:02:31.312Z,13.96
2017-10-24T12:03:40.163Z,13.95
2017-10-24T12:04:49.013Z,14.03
2017-10-24T12:05:57.862Z,14.03
2017-10-24T12:07:06.714Z,14.02
2017-10-24T12:08:15.722Z,13.97
2017-10-24T12:09:24.581Z,14.04
2017-10-24T12:10:33.431Z,13.92
2017-10-24T12:11:42.283Z,13.95
2017-10-24T12:12:51.133Z,13.99
2017-10-24T12:14:00.973Z,14.02
2017-10-24T12:15:09.824Z,13.99
2017-10-24T12:16:18.677Z,14.02
2017-10-24T12:17:27.526Z,13.97
2017-10-24T12:18:36.377Z,14.07
2017-10-24T12:19:45.537Z,13.99
2017-10-24T12:20:54.387Z,14
2017-10-24T12:22:03.237Z,13.96
2017-10-24T12:23:12.088Z,13.92
2017-10-24T12:24:20.938Z,14.02
2017-10-24T12:25:29.789Z,14
2017-10-24T12:26:38.642Z,13.96
2017-10-24T12:27:47.495Z,13.97
2017-10-24T12:28:56.347Z,14.02
2017-10-24T12:30:05.204Z,14.03
2017-10-24T12:31:14.254Z,13.96
2017-10-24T12:32:23.100Z,14
2017-10-24T12:33:31.949Z,14.02
2017-10-24T12:34:40.799Z,14.03
2017-10-24T12:35:49.654Z,14
2017-10-24T12:36:58.805Z,14.04
2017-10-24T12:38:07.654Z,13.99
2017-10-24T12:39:16.505Z,13.96
2017-10-24T12:40:25.356Z,13.96
2017-10-24T12:41:34.209Z,14.02
2017-10-24T12:42:43.062Z,14.06
2017-10-24T12:43:51.917Z,14
2017-10-24T12:45:00.767Z,14.03
2017-10-24T12:46:09.622Z,14.07
2017-10-24T12:47:18.473Z,14.03
2017-10-24T12:48:27.627Z,13.99
2017-10-24T12:49:36.479Z,14.06
2017-10-24T12:50:45.332Z,14.03
2017-10-24T12:51:54.183Z,14.03
2017-10-24T12:53:03.035Z,14.09
2017-10-24T12:54:11.885Z,14.09
2017-10-24T12:55:20.738Z,14.07
2017-10-24T12:56:29.589Z,14.07
2017-10-24T12:57:38.436Z,14.07
2017-10-24T12:58:47.636Z,14.1
2017-10-24T12:59:56.635Z,14.1
2017-10-24T13:01:05.488Z,14.14
2017-10-24T13:02:14.340Z,14.07
2017-10-24T13:03:23.193Z,14.06
2017-10-24T13:04:32.046Z,14.1
2017-10-24T13:05:40.897Z,14.18
2017-10-24T13:06:49.753Z,14.1
2017-10-24T13:07:58.605Z,14.09
2017-10-24T13:09:07.458Z,14.04
2017-10-24T13:10:16.310Z,14.1
2017-10-24T13:11:25.163Z,14.12
2017-10-24T13:12:34.014Z,14.04
2017-10-24T13:13:42.867Z,14.1
2017-10-24T13:14:51.720Z,14.12
2017-10-24T13:16:00.574Z,14.1
2017-10-24T13:17:09.423Z,14.1
2017-10-24T13:18:18.275Z,14.15
2017-10-24T13:19:27.127Z,14.15
2017-10-24T13:20:35.974Z,14.12
2017-10-24T13:21:44.828Z,14.15
2017-10-24T13:22:53.682Z,14.18
2017-10-24T13:24:02.529Z,14.21
2017-10-24T13:25:11.379Z,14.24
2017-10-24T13:26:20.229Z,14.17
2017-10-24T13:27:29.081Z,14.09
2017-10-24T13:28:37.935Z,14.21
2017-10-24T13:29:47.131Z,14.15
2017-10-24T13:30:55.982Z,14.15
2017-10-24T13:32:04.834Z,14.15
2017-10-24T13:33:13.691Z,14.18
2017-10-24T13:34:22.542Z,14.21
2017-10-24T13:35:31.594Z,14.25
2017-10-24T13:36:40.448Z,14.22
2017-10-24T13:37:49.303Z,14.27
2017-10-24T13:38:58.153Z,14.27
2017-10-24T13:40:07.003Z,14.28
2017-10-24T13:41:16.050Z,14.22
2017-10-24T13:42:24.903Z,14.37
2017-10-24T13:43:33.756Z,14.29
2017-10-24T13:44:42.950Z,14.32
2017-10-24T13:45:51.803Z,14.25
2017-10-24T13:47:00.709Z,14.27
2017-10-24T13:48:09.558Z,14.27
2017-10-24T13:49:18.410Z,14.28
2017-10-24T13:50:27.612Z,14.28
2017-10-24T13:51:36.462Z,14.28
2017-10-24T13:52:45.965Z,14.35
2017-10-24T13:53:54.824Z,14.29
2017-10-24T13:55:03.678Z,14.36
2017-10-24T13:56:12.543Z,14.27
2017-10-24T13:57:21.392Z,14.33
2017-10-24T13:58:30.325Z,14.42
2017-10-24T14:00:11.252Z,14.32
2017-10-24T14:01:20.108Z,14.35
2017-10-24T14:02:28.967Z,14.33
2017-10-24T14:03:37.919Z,14.27
2017-10-24T14:04:46.793Z,14.28
2017-10-24T14:05:55.676Z,14.28
2017-10-24T14:07:04.527Z,14.33
2017-10-24T14:08:13.385Z,14.27
2017-10-24T14:09:22.334Z,14.33
2017-10-24T14:10:31.184Z,14.33
2017-10-24T14:11:40.035Z,14.33
2017-10-24T14:12:48.885Z,14.35
2017-10-24T14:13:57.736Z,14.32
2017-10-24T14:15:06.740Z,14.33
2017-10-24T14:16:15.592Z,14.33
2017-10-24T14:17:24.445Z,14.32
2017-10-24T14:18:33.295Z,14.33
2017-10-24T14:19:42.150Z,14.33
2017-10-24T14:20:51.300Z,14.29
2017-10-24T14:22:00.152Z,14.32
2017-10-24T14:23:09.004Z,14.32
2017-10-24T14:24:17.855Z,14.33
2017-10-24T14:25:26.704Z,14.28
2017-10-24T14:26:35.656Z,14.28
2017-10-24T14:27:44.852Z,14.35
2017-10-24T14:28:53.708Z,14.54
2017-10-24T14:30:02.565Z,14.33
2017-10-24T14:31:11.782Z,14.4
2017-10-24T14:32:20.735Z,14.37
2017-10-24T14:33:29.613Z,14.37
2017-10-24T14:34:38.809Z,14.32
2017-10-24T14:35:47.661Z,14.32
2017-10-24T14:36:56.512Z,14.37
2017-10-24T14:38:05.361Z,14.32
2017-10-24T14:39:14.212Z,14.25
2017-10-24T14:40:23.064Z,14.29
2017-10-24T14:41:31.914Z,14.28
2017-10-24T14:42:40.796Z,14.32
2017-10-24T14:43:49.749Z,14.28
2017-10-24T14:44:58.603Z,14.28
2017-10-24T14:46:07.455Z,14.32
2017-10-24T14:47:16.311Z,14.33
2017-10-24T14:48:25.173Z,14.25
2017-10-24T14:49:34.075Z,14.35
2017-10-24T14:50:42.928Z,14.4
2017-10-24T14:51:51.774Z,14.39